createdAt,value
2022-11-27T00:00:11.349Z,5.61
2022-11-27T00:02:43.227Z,5.61
2022-11-27T00:05:13.363Z,5.77
2022-11-27T00:07:42.506Z,5.78
2022-11-27T00:10:12.241Z,5.68
2022-11-27T00:12:41.115Z,5.56
2022-11-27T00:15:14.620Z,5.79
2022-11-27T00:17:46.292Z,6.06
2022-11-27T00:20:19.950Z,5.99
2022-11-27T00:22:49.418Z,5.73
2022-11-27T00:25:18.449Z,5.71
2022-11-27T00:27:50.511Z,5.67
2022-11-27T00:30:24.213Z,5.79
2022-11-27T00:32:54.103Z,5.89
2022-11-27T00:35:24.337Z,5.96
2022-11-27T00:37:53.277Z,5.83
2022-11-27T00:40:22.345Z,5.64
2022-11-27T00:42:53.343Z,5.92
2022-11-27T00:45:22.736Z,6.24
2022-11-27T00:47:52.035Z,6.34
2022-11-27T00:50:22.055Z,6.20
2022-11-27T00:52:53.084Z,6.14
2022-11-27T00:55:21.929Z,6.18
2022-11-27T00:57:50.742Z,6.15
2022-11-27T01:00:23.980Z,5.99
2022-11-27T01:02:52.865Z,6.08
2022-11-27T01:05:22.439Z,5.76
2022-11-27T01:07:52.889Z,5.83
2022-11-27T01:10:21.765Z,5.86
2022-11-27T01:12:50.976Z,5.83
2022-11-27T01:15:19.825Z,6.10
2022-11-27T01:17:48.966Z,6.11
2022-11-27T01:20:20.424Z,6.07
2022-11-27T01:22:49.300Z,5.92
2022-11-27T01:25:21.921Z,5.93
2022-11-27T01:27:54.772Z,5.96
2022-11-27T01:30:23.630Z,5.90
2022-11-27T01:32:52.417Z,6.03
2022-11-27T01:35:21.466Z,5.20
2022-11-27T01:37:52.790Z,6.06
2022-11-27T01:40:26.155Z,6.14
2022-11-27T01:42:55.830Z,5.95
2022-11-27T01:45:25.261Z,5.75
2022-11-27T01:47:57.304Z,6.03
2022-11-27T01:50:30.454Z,5.10
2022-11-27T01:53:06.910Z,5.99
2022-11-27T01:55:45.589Z,5.63
2022-11-27T01:58:21.370Z,5.87
2022-11-27T02:00:50.284Z,5.76
2022-11-27T02:03:19.471Z,5.87
2022-11-27T02:05:48.277Z,5.72
2022-11-27T02:08:18.630Z,5.15
2022-11-27T02:10:54.507Z,5.85
2022-11-27T02:13:30.614Z,5.77
2022-11-27T02:16:12.684Z,5.68
2022-11-27T02:18:50.143Z,5.83
2022-11-27T02:21:25.376Z,5.74
2022-11-27T02:24:22.633Z,5.51
2022-11-27T02:27:18.646Z,5.31
2022-11-27T02:29:51.277Z,5.59
2022-11-27T02:32:27.180Z,5.45
2022-11-27T02:35:05.518Z,5.37
2022-11-27T02:37:40.817Z,5.21
2022-11-27T02:40:14.154Z,5.37
2022-11-27T02:42:47.442Z,5.47
2022-11-27T02:45:23.663Z,5.66
2022-11-27T02:47:52.524Z,5.56
2022-11-27T02:50:25.999Z,5.68
2022-11-27T02:53:01.035Z,5.59
2022-11-27T02:55:33.889Z,5.58
2022-11-27T02:58:05.249Z,5.56
2022-11-27T03:00:36.668Z,5.69
2022-11-27T03:03:11.430Z,5.68
2022-11-27T03:05:46.584Z,5.87
2022-11-27T03:08:24.691Z,5.79
2022-11-27T03:10:59.655Z,5.89
2022-11-27T03:13:30.001Z,5.99
2022-11-27T03:16:11.446Z,5.33
2022-11-27T03:18:45.215Z,5.88
2022-11-27T03:21:23.952Z,5.85
2022-11-27T03:23:53.059Z,5.85
2022-11-27T03:26:22.546Z,5.57
2022-11-27T03:28:53.203Z,5.76
2022-11-27T03:31:24.183Z,5.87
2022-11-27T03:33:54.099Z,5.95
2022-11-27T03:36:26.376Z,5.95
2022-11-27T03:38:56.630Z,5.89
2022-11-27T03:41:35.757Z,5.91
2022-11-27T03:44:10.289Z,5.80
2022-11-27T03:46:54.740Z,5.80
2022-11-27T03:49:35.284Z,5.69
2022-11-27T03:52:13.367Z,5.58
2022-11-27T03:54:51.181Z,5.52
2022-11-27T03:57:24.382Z,5.44
2022-11-27T03:59:58.521Z,5.25
2022-11-27T04:02:32.735Z,5.44
2022-11-27T04:05:02.415Z,5.67
2022-11-27T04:07:31.277Z,5.74
2022-11-27T04:10:00.151Z,5.55
2022-11-27T04:12:29.744Z,5.59
2022-11-27T04:14:59.898Z,5.96
2022-11-27T04:17:35.271Z,5.80
2022-11-27T04:20:08.050Z,5.96
2022-11-27T04:22:37.191Z,5.80
2022-11-27T04:25:07.415Z,6.21
2022-11-27T04:27:36.379Z,5.92
2022-11-27T04:30:06.389Z,5.69
2022-11-27T04:32:37.217Z,5.68
2022-11-27T04:35:06.706Z,5.87
2022-11-27T04:37:36.419Z,5.79
2022-11-27T04:40:09.838Z,5.67
2022-11-27T04:42:38.652Z,5.91
2022-11-27T04:45:08.734Z,5.68
2022-11-27T04:47:38.965Z,5.92
2022-11-27T04:50:09.810Z,5.82
2022-11-27T04:52:39.199Z,5.80
2022-11-27T04:55:09.228Z,5.55
2022-11-27T04:57:38.401Z,5.65
2022-11-27T05:00:08.979Z,5.69
2022-11-27T05:02:40.736Z,5.81
2022-11-27T05:05:10.791Z,5.52
2022-11-27T05:07:40.134Z,5.69
2022-11-27T05:10:10.943Z,5.64
2022-11-27T05:12:40.908Z,5.79
2022-11-27T05:15:11.640Z,5.92
2022-11-27T05:17:43.137Z,5.82
2022-11-27T05:20:13.100Z,5.78
2022-11-27T05:22:44.311Z,5.81
2022-11-27T05:25:13.822Z,6.02
2022-11-27T05:27:43.617Z,5.69
2022-11-27T05:30:13.786Z,5.59
2022-11-27T05:32:44.858Z,5.66
2022-11-27T05:35:14.886Z,5.64
2022-11-27T05:37:44.923Z,5.54
2022-11-27T05:40:15.397Z,5.91
2022-11-27T05:42:44.847Z,5.80
2022-11-27T05:45:14.451Z,5.77
2022-11-27T05:47:45.277Z,5.75
2022-11-27T05:50:17.191Z,5.55
2022-11-27T05:52:48.894Z,5.60
2022-11-27T05:55:18.040Z,5.44
2022-11-27T05:57:47.097Z,5.58
2022-11-27T06:00:16.929Z,5.84
2022-11-27T06:02:47.499Z,5.76
2022-11-27T06:05:18.691Z,5.50
2022-11-27T06:07:48.246Z,5.61
2022-11-27T06:10:18.167Z,5.48
2022-11-27T06:12:46.934Z,5.63
2022-11-27T06:15:15.719Z,5.34
2022-11-27T06:17:45.016Z,5.43
2022-11-27T06:20:15.584Z,5.56
2022-11-27T06:22:45.313Z,5.37
2022-11-27T06:25:14.789Z,5.51
2022-11-27T06:27:43.569Z,4.93
2022-11-27T06:30:13.429Z,5.44
2022-11-27T06:32:42.657Z,5.25
2022-11-27T06:35:11.827Z,5.85
2022-11-27T06:37:42.073Z,5.66
2022-11-27T06:40:12.412Z,4.70
2022-11-27T06:42:43.484Z,5.66
2022-11-27T06:45:14.033Z,4.95
2022-11-27T06:47:45.513Z,5.65
2022-11-27T06:50:15.504Z,5.62
2022-11-27T06:52:46.536Z,5.53
2022-11-27T06:55:15.893Z,5.55
2022-11-27T06:57:45.295Z,5.64
2022-11-27T07:00:15.716Z,5.69
2022-11-27T07:02:45.255Z,5.40
2022-11-27T07:05:15.344Z,5.63
2022-11-27T07:07:45.065Z,5.40
2022-11-27T07:10:18.715Z,5.63
2022-11-27T07:12:48.320Z,5.70
2022-11-27T07:15:17.964Z,5.76
2022-11-27T07:17:47.693Z,5.96
2022-11-27T07:20:17.887Z,6.05
2022-11-27T07:22:47.494Z,6.01
2022-11-27T07:25:18.268Z,5.73
2022-11-27T07:27:49.309Z,5.87
2022-11-27T07:30:18.906Z,5.86
2022-11-27T07:32:49.253Z,5.77
2022-11-27T07:35:19.355Z,5.87
2022-11-27T07:37:51.783Z,5.78
2022-11-27T07:40:23.865Z,5.88
2022-11-27T07:42:52.751Z,5.85
2022-11-27T07:45:22.545Z,5.76
2022-11-27T07:47:52.441Z,5.76
2022-11-27T07:50:24.246Z,5.74
2022-11-27T07:52:53.025Z,5.66
2022-11-27T07:55:23.862Z,5.76
2022-11-27T07:57:52.976Z,5.92
2022-11-27T08:00:23.989Z,5.90
2022-11-27T08:02:53.022Z,5.78
2022-11-27T08:05:22.655Z,5.84
2022-11-27T08:07:51.513Z,5.25
2022-11-27T08:10:24.858Z,5.91
2022-11-27T08:12:54.116Z,5.70
2022-11-27T08:15:23.648Z,5.82
2022-11-27T08:17:52.360Z,5.48
2022-11-27T08:20:21.201Z,5.56
2022-11-27T08:22:50.021Z,5.68
2022-11-27T08:25:19.162Z,5.48
2022-11-27T08:27:49.476Z,5.49
2022-11-27T08:30:18.397Z,5.66
2022-11-27T08:32:47.221Z,5.73
2022-11-27T08:35:16.473Z,5.74
2022-11-27T08:37:46.036Z,5.63
2022-11-27T08:40:15.647Z,5.55
2022-11-27T08:42:44.343Z,5.61
2022-11-27T08:45:14.953Z,5.76
2022-11-27T08:47:43.995Z,5.59
2022-11-27T08:50:12.721Z,5.63
2022-11-27T08:52:41.483Z,5.67
2022-11-27T08:55:10.646Z,5.78
2022-11-27T08:57:39.240Z,5.66
2022-11-27T09:00:09.414Z,5.74
2022-11-27T09:02:39.559Z,5.89
2022-11-27T09:05:09.132Z,5.83
2022-11-27T09:07:37.933Z,5.72
2022-11-27T09:10:07.965Z,5.97
2022-11-27T09:12:43.201Z,5.99
2022-11-27T09:15:18.078Z,5.97
2022-11-27T09:17:49.861Z,6.20
2022-11-27T09:20:18.737Z,6.11
2022-11-27T09:22:50.349Z,5.96
2022-11-27T09:25:19.715Z,6.04
2022-11-27T09:27:48.637Z,6.10
2022-11-27T09:30:17.950Z,6.13
2022-11-27T09:32:48.374Z,6.02
2022-11-27T09:35:18.081Z,6.18
2022-11-27T09:37:47.315Z,6.18
2022-11-27T09:40:19.071Z,6.05
2022-11-27T09:42:54.477Z,5.95
2022-11-27T09:45:25.452Z,6.01
2022-11-27T09:48:00.382Z,6.14
2022-11-27T09:50:33.328Z,5.83
2022-11-27T09:53:10.431Z,6.08
2022-11-27T09:55:43.338Z,6.09
2022-11-27T09:58:19.694Z,6.07
2022-11-27T10:00:49.177Z,5.85
2022-11-27T10:03:24.756Z,6.10
2022-11-27T10:06:04.565Z,6.04
2022-11-27T10:08:45.057Z,5.85
2022-11-27T10:11:21.123Z,6.02
2022-11-27T10:14:04.593Z,5.96
2022-11-27T10:16:44.258Z,6.28
2022-11-27T10:19:37.109Z,6.25
2022-11-27T10:22:19.472Z,5.36
2022-11-27T10:25:02.435Z,5.94
2022-11-27T10:27:37.419Z,6.04
2022-11-27T10:30:15.522Z,5.97
2022-11-27T10:33:00.935Z,5.87
2022-11-27T10:35:34.060Z,6.16
2022-11-27T10:38:07.946Z,5.93
2022-11-27T10:40:43.059Z,6.11
2022-11-27T10:43:17.001Z,6.01
2022-11-27T10:45:49.765Z,5.96
2022-11-27T10:48:18.994Z,5.95
2022-11-27T10:50:49.661Z,6.06
2022-11-27T10:53:27.854Z,6.08
2022-11-27T10:56:21.349Z,6.38
2022-11-27T10:58:57.917Z,5.83
2022-11-27T11:01:29.509Z,6.08
2022-11-27T11:04:31.149Z,6.36
2022-11-27T11:07:23.233Z,6.16
2022-11-27T11:09:53.029Z,6.49
2022-11-27T11:12:25.237Z,6.42
2022-11-27T11:14:55.288Z,6.17
2022-11-27T11:17:27.503Z,6.17
2022-11-27T11:19:57.804Z,6.22
2022-11-27T11:22:29.860Z,6.33
2022-11-27T11:24:59.658Z,6.22
2022-11-27T11:27:32.302Z,6.12
2022-11-27T11:30:04.244Z,6.22
2022-11-27T11:32:36.085Z,6.04
2022-11-27T11:35:10.942Z,6.00
2022-11-27T11:37:47.518Z,5.96
2022-11-27T11:40:24.860Z,6.19
2022-11-27T11:42:58.907Z,6.26
2022-11-27T11:45:32.620Z,6.08
2022-11-27T11:48:03.788Z,6.03
2022-11-27T11:50:38.298Z,6.08
2022-11-27T11:53:18.985Z,6.02
2022-11-27T11:56:02.763Z,6.14
2022-11-27T11:58:46.540Z,6.32
2022-11-27T12:01:31.445Z,6.27
2022-11-27T12:04:16.016Z,6.16
2022-11-27T12:07:01.395Z,6.35
2022-11-27T12:09:46.767Z,6.25
2022-11-27T12:12:29.490Z,6.28
2022-11-27T12:15:07.904Z,6.37
2022-11-27T12:17:49.893Z,6.27
2022-11-27T12:20:22.697Z,6.10
2022-11-27T12:23:40.340Z,6.22
2022-11-27T12:26:22.485Z,6.28
2022-11-27T12:29:39.245Z,6.12
2022-11-27T12:32:35.911Z,6.45
2022-11-27T12:35:26.930Z,6.20
2022-11-27T12:38:08.438Z,6.20
2022-11-27T12:40:51.228Z,6.29
2022-11-27T12:43:26.115Z,6.40
2022-11-27T12:46:01.759Z,6.58
2022-11-27T12:48:37.928Z,6.34
2022-11-27T12:51:10.883Z,6.35
2022-11-27T12:53:46.664Z,6.37
2022-11-27T12:56:22.074Z,5.99
2022-11-27T12:58:56.042Z,6.33
2022-11-27T13:01:30.587Z,6.47
2022-11-27T13:04:07.736Z,6.37
2022-11-27T13:06:47.171Z,6.42
2022-11-27T13:09:22.213Z,6.34
2022-11-27T13:11:51.666Z,6.52
2022-11-27T13:14:25.188Z,6.55
2022-11-27T13:16:57.670Z,6.51
2022-11-27T13:19:32.762Z,6.44
2022-11-27T13:22:05.990Z,6.38
2022-11-27T13:24:35.019Z,6.70
2022-11-27T13:27:10.788Z,6.41
2022-11-27T13:29:48.290Z,6.28
2022-11-27T13:32:23.765Z,6.68
2022-11-27T13:34:54.545Z,6.64
2022-11-27T13:37:33.424Z,6.57
2022-11-27T13:40:08.893Z,6.57
2022-11-27T13:42:43.511Z,6.43
2022-11-27T13:45:22.927Z,6.49
2022-11-27T13:47:53.158Z,6.51
2022-11-27T13:50:30.835Z,6.82
2022-11-27T13:53:04.409Z,6.78
2022-11-27T13:55:36.264Z,6.43
2022-11-27T13:58:08.275Z,6.86
2022-11-27T14:00:40.998Z,6.54
2022-11-27T14:03:24.431Z,6.46
2022-11-27T14:05:53.792Z,6.75
2022-11-27T14:08:25.855Z,6.57
2022-11-27T14:10:59.782Z,6.74
2022-11-27T14:13:37.930Z,6.63
2022-11-27T14:16:26.335Z,6.64
2022-11-27T14:18:58.309Z,6.71
2022-11-27T14:21:40.349Z,6.51
2022-11-27T14:24:26.686Z,6.79
2022-11-27T14:26:56.315Z,6.79
2022-11-27T14:29:26.223Z,6.69
2022-11-27T14:32:01.970Z,6.61
2022-11-27T14:34:32.511Z,6.64
2022-11-27T14:37:03.557Z,6.46
2022-11-27T14:39:38.495Z,6.27
2022-11-27T14:42:09.456Z,6.37
2022-11-27T14:44:39.063Z,6.45
2022-11-27T14:47:09.393Z,6.63
2022-11-27T14:49:38.472Z,6.72
2022-11-27T14:52:09.868Z,6.38
2022-11-27T14:54:40.432Z,6.53
2022-11-27T14:57:17.933Z,6.50
2022-11-27T14:59:47.019Z,6.44
2022-11-27T15:02:24.633Z,6.67
2022-11-27T15:05:05.111Z,6.78
2022-11-27T15:07:45.229Z,6.65
2022-11-27T15:10:36.617Z,6.46
2022-11-27T15:13:08.257Z,6.41
2022-11-27T15:15:44.139Z,6.76
2022-11-27T15:18:23.724Z,6.72
2022-11-27T15:20:53.185Z,6.83
2022-11-27T15:23:27.996Z,6.94
2022-11-27T15:26:16.942Z,6.82
2022-11-27T15:28:53.658Z,6.83
2022-11-27T15:31:29.120Z,6.92
2022-11-27T15:34:02.771Z,6.94
2022-11-27T15:36:38.329Z,6.74
2022-11-27T15:39:19.346Z,6.83
2022-11-27T15:41:56.596Z,6.73
2022-11-27T15:44:26.793Z,6.95
2022-11-27T15:46:57.643Z,7.04
2022-11-27T15:49:32.019Z,6.99
2022-11-27T15:52:01.733Z,6.94
2022-11-27T15:54:30.509Z,7.15
2022-11-27T15:56:59.209Z,7.12
2022-11-27T15:59:29.555Z,7.10
2022-11-27T16:01:58.656Z,7.10
2022-11-27T16:04:28.047Z,7.13
2022-11-27T16:06:59.046Z,6.97
2022-11-27T16:09:28.859Z,7.09
2022-11-27T16:11:58.158Z,7.12
2022-11-27T16:14:26.917Z,7.23
2022-11-27T16:16:55.837Z,7.09
2022-11-27T16:19:24.588Z,7.06
2022-11-27T16:21:55.429Z,6.93
2022-11-27T16:24:26.955Z,6.96
2022-11-27T16:26:58.678Z,6.91
2022-11-27T16:29:28.060Z,6.97
2022-11-27T16:31:57.989Z,6.85
2022-11-27T16:34:27.048Z,7.06
2022-11-27T16:36:55.783Z,7.10
2022-11-27T16:39:26.830Z,7.08
2022-11-27T16:41:55.683Z,6.91
2022-11-27T16:44:24.612Z,6.84
2022-11-27T16:46:54.750Z,6.99
2022-11-27T16:49:23.630Z,6.92
2022-11-27T16:51:53.641Z,6.95
2022-11-27T16:54:22.405Z,6.90
2022-11-27T16:56:53.801Z,6.57
2022-11-27T16:59:24.759Z,6.90
2022-11-27T17:01:53.629Z,6.80
2022-11-27T17:04:22.509Z,6.92
2022-11-27T17:06:51.494Z,6.23
2022-11-27T17:09:22.685Z,6.79
2022-11-27T17:11:56.559Z,6.58
2022-11-27T17:14:28.158Z,6.49
2022-11-27T17:16:57.759Z,6.70
2022-11-27T17:19:30.011Z,6.85
2022-11-27T17:21:59.759Z,6.96
2022-11-27T17:24:29.132Z,6.87
2022-11-27T17:27:04.061Z,7.09
2022-11-27T17:29:33.914Z,6.91
2022-11-27T17:32:08.129Z,6.95
2022-11-27T17:34:36.973Z,6.81
2022-11-27T17:37:06.182Z,6.56
2022-11-27T17:39:34.912Z,6.76
2022-11-27T17:42:08.731Z,6.77
2022-11-27T17:44:43.043Z,6.88
2022-11-27T17:47:14.501Z,6.93
2022-11-27T17:49:46.899Z,6.93
2022-11-27T17:52:18.126Z,6.82
2022-11-27T17:54:49.520Z,6.71
2022-11-27T17:57:19.805Z,6.77
2022-11-27T17:59:49.812Z,6.78
2022-11-27T18:02:19.380Z,6.87
2022-11-27T18:04:49.522Z,6.64
2022-11-27T18:07:19.279Z,6.88
2022-11-27T18:09:50.473Z,6.86
2022-11-27T18:12:20.846Z,6.87
2022-11-27T18:14:55.327Z,6.64
2022-11-27T18:17:27.169Z,6.69
2022-11-27T18:19:57.275Z,6.74
2022-11-27T18:22:26.397Z,6.70
2022-11-27T18:24:55.643Z,6.45
2022-11-27T18:27:28.727Z,6.46
2022-11-27T18:29:58.124Z,6.58
2022-11-27T18:32:28.611Z,6.52
2022-11-27T18:34:57.933Z,6.34
2022-11-27T18:37:27.533Z,6.44
2022-11-27T18:39:56.932Z,6.67
2022-11-27T18:42:30.637Z,6.76
2022-11-27T18:45:00.129Z,6.47
2022-11-27T18:47:34.957Z,6.59
2022-11-27T18:50:08.258Z,6.40
2022-11-27T18:52:40.005Z,6.60
2022-11-27T18:55:10.308Z,6.48
2022-11-27T18:57:41.285Z,6.45
2022-11-27T19:00:12.482Z,6.55
2022-11-27T19:02:42.293Z,6.55
2022-11-27T19:05:13.811Z,6.69
2022-11-27T19:07:43.282Z,6.47
2022-11-27T19:10:13.108Z,5.44
2022-11-27T19:12:44.046Z,6.40
2022-11-27T19:15:13.812Z,6.25
2022-11-27T19:17:43.447Z,6.45
2022-11-27T19:20:15.637Z,6.55
2022-11-27T19:22:45.366Z,6.47
2022-11-27T19:25:14.786Z,6.63
2022-11-27T19:27:47.129Z,6.41
2022-11-27T19:30:17.076Z,6.45
2022-11-27T19:32:48.179Z,6.49
2022-11-27T19:35:22.156Z,6.39
2022-11-27T19:37:51.990Z,6.23
2022-11-27T19:40:22.458Z,6.17
2022-11-27T19:42:57.985Z,6.43
2022-11-27T19:45:29.804Z,6.32
2022-11-27T19:47:59.975Z,6.49
2022-11-27T19:50:29.862Z,6.46
2022-11-27T19:53:00.033Z,6.21
2022-11-27T19:55:30.390Z,6.21
2022-11-27T19:58:00.964Z,6.24
2022-11-27T20:00:31.363Z,6.34
2022-11-27T20:03:00.937Z,6.21
2022-11-27T20:05:30.302Z,6.28
2022-11-27T20:08:00.486Z,6.28
2022-11-27T20:10:30.446Z,6.42
2022-11-27T20:13:02.990Z,6.40
2022-11-27T20:15:32.785Z,6.26
2022-11-27T20:18:02.516Z,6.40
2022-11-27T20:20:34.311Z,6.19
2022-11-27T20:23:03.665Z,6.37
2022-11-27T20:25:32.450Z,6.19
2022-11-27T20:28:05.117Z,6.30
2022-11-27T20:30:34.458Z,5.95
2022-11-27T20:33:07.760Z,6.37
2022-11-27T20:35:42.605Z,6.44
2022-11-27T20:38:12.290Z,6.50
2022-11-27T20:40:42.155Z,6.40
2022-11-27T20:43:12.998Z,6.33
2022-11-27T20:45:44.970Z,6.44
2022-11-27T20:48:15.124Z,6.40
2022-11-27T20:50:51.291Z,6.43
2022-11-27T20:53:20.926Z,5.73
2022-11-27T20:55:50.520Z,6.20
2022-11-27T20:58:21.631Z,6.07
2022-11-27T21:00:50.888Z,6.27
2022-11-27T21:03:20.452Z,6.19
2022-11-27T21:05:51.784Z,6.26
2022-11-27T21:08:21.418Z,6.36
2022-11-27T21:10:51.133Z,6.15
2022-11-27T21:13:22.132Z,6.33
2022-11-27T21:15:51.429Z,6.35
2022-11-27T21:18:20.632Z,5.96
2022-11-27T21:20:52.590Z,6.39
2022-11-27T21:23:21.841Z,6.24
2022-11-27T21:25:53.865Z,6.46
2022-11-27T21:28:24.281Z,6.36
2022-11-27T21:30:55.650Z,6.22
2022-11-27T21:33:24.730Z,6.48
2022-11-27T21:35:56.527Z,6.37
2022-11-27T21:38:26.734Z,6.22
2022-11-27T21:40:56.253Z,6.42
2022-11-27T21:43:27.019Z,6.29
2022-11-27T21:45:56.116Z,6.11
2022-11-27T21:48:25.330Z,6.05
2022-11-27T21:51:02.037Z,6.29
2022-11-27T21:53:32.297Z,6.27
2022-11-27T21:56:05.091Z,6.41
2022-11-27T21:58:38.616Z,6.39
2022-11-27T22:01:15.802Z,6.51
2022-11-27T22:03:45.041Z,6.29
2022-11-27T22:06:16.561Z,6.36
2022-11-27T22:08:47.478Z,6.37
2022-11-27T22:11:21.428Z,6.43
2022-11-27T22:13:52.361Z,6.34
2022-11-27T22:16:24.212Z,6.14
2022-11-27T22:18:56.660Z,6.37
2022-11-27T22:21:27.297Z,6.49
2022-11-27T22:23:56.356Z,6.19
2022-11-27T22:26:26.421Z,6.30
2022-11-27T22:28:59.719Z,6.30
2022-11-27T22:31:31.205Z,6.42
2022-11-27T22:34:00.901Z,6.42
2022-11-27T22:36:34.161Z,6.48
2022-11-27T22:39:05.153Z,6.45
2022-11-27T22:41:36.758Z,5.96
2022-11-27T22:44:08.306Z,6.39
2022-11-27T22:46:40.615Z,6.33
2022-11-27T22:49:12.644Z,6.44
2022-11-27T22:51:42.354Z,6.42
2022-11-27T22:54:13.938Z,6.34
2022-11-27T22:56:45.405Z,6.40
2022-11-27T22:59:34.840Z,6.41
2022-11-27T23:02:08.972Z,6.42
2022-11-27T23:04:41.054Z,6.32
2022-11-27T23:07:11.879Z,6.35
2022-11-27T23:09:41.055Z,6.46
2022-11-27T23:12:12.524Z,6.63
2022-11-27T23:14:42.939Z,6.54
2022-11-27T23:17:14.391Z,6.54
2022-11-27T23:19:44.093Z,6.36
2022-11-27T23:22:13.283Z,6.53
2022-11-27T23:24:42.729Z,6.61
2022-11-27T23:27:12.044Z,6.49
2022-11-27T23:29:45.321Z,6.47
2022-11-27T23:32:14.452Z,6.44
2022-11-27T23:34:44.081Z,5.72
2022-11-27T23:37:13.237Z,6.50
2022-11-27T23:39:42.365Z,6.36
2022-11-27T23:42:11.421Z,6.38
2022-11-27T23:44:42.351Z,6.17
2022-11-27T23:47:12.839Z,6.28
2022-11-27T23:49:43.972Z,6.08
2022-11-27T23:52:16.948Z,6.05
2022-11-27T23:54:49.251Z,5.89
2022-11-27T23:57:20.443Z,6.01
2022-11-27T23:59:49.490Z,6.16
